Time;durP1;ratioP1;P1;durP2;ratioP2;P2;SDS_P1;SDS_P2;PMS_P1;PMS_P2;Temp;Humidity;BMP_temperature;BMP_pressure;BME280_temperature;BME280_humidity;BME280_pressure;Samples;Min_cycle;Max_cycle;Signal;HPM_P1;HPM_P2
2021/10/07 00:01:52;;;;;;;13.57;9.07;;;;;;;15.50;61.50;100563.06;4360044;32;33136;-85
2021/10/07 00:04:21;;;;;;;12.77;9.13;;;;;;;15.44;61.93;100560.69;4347750;32;33651;-85
2021/10/07 00:06:49;;;;;;;14.50;9.55;;;;;;;15.39;62.25;100568.72;4360590;32;34530;-85
2021/10/07 00:09:17;;;;;;;13.23;9.43;;;;;;;15.22;63.38;100569.34;4347663;32;33080;-85
2021/10/07 00:11:45;;;;;;;14.27;9.43;;;;;;;15.46;62.85;100570.22;4360143;32;33287;-86
2021/10/07 00:14:12;;;;;;;14.98;9.60;;;;;;;15.45;63.12;100578.16;4360269;32;35477;-86
2021/10/07 00:16:40;;;;;;;13.73;9.38;;;;;;;15.19;64.53;100580.81;4347725;32;34257;-86
2021/10/07 00:19:09;;;;;;;14.35;10.23;;;;;;;15.27;64.02;100583.19;4348401;32;33522;-86
2021/10/07 00:21:37;;;;;;;17.45;11.23;;;;;;;15.28;64.22;100579.66;4360105;32;34859;-85
2021/10/07 00:24:09;;;;;;;17.92;10.25;;;;;;;15.12;65.33;100586.37;4360501;32;34743;-85
2021/10/07 00:26:39;;;;;;;16.05;10.00;;;;;;;15.16;65.64;100586.19;4359955;32;33006;-85
2021/10/07 00:29:25;;;;;;;17.53;10.90;;;;;;;15.26;65.47;100589.34;4360263;32;34565;-85
2021/10/07 00:32:00;;;;;;;14.30;9.77;;;;;;;14.87;67.23;100595.12;4337179;32;34245;-85
2021/10/07 00:39:36;;;;;;;14.70;10.45;;;;;;;15.47;64.72;100592.09;4359868;32;34581;-86
2021/10/07 00:42:05;;;;;;;15.52;11.52;;;;;;;15.48;64.47;100593.81;4347852;32;33320;-85
2021/10/07 00:44:33;;;;;;;15.88;10.70;;;;;;;15.20;66.25;100586.94;4359877;32;33727;-86
2021/10/07 00:47:01;;;;;;;13.32;10.10;;;;;;;15.42;65.27;100589.63;4359958;32;33615;-86
2021/10/07 00:49:33;;;;;;;17.05;10.60;;;;;;;15.51;65.37;100583.16;4360251;32;33717;-85
2021/10/07 00:52:00;;;;;;;14.65;10.32;;;;;;;15.24;66.51;100582.44;4360300;32;34993;-85
2021/10/07 00:54:28;;;;;;;16.48;11.25;;;;;;;15.22;66.86;100587.72;4346966;32;34369;-85
2021/10/07 00:56:56;;;;;;;15.57;11.43;;;;;;;15.17;67.34;100584.41;4347977;32;33987;-85
2021/10/07 00:59:24;;;;;;;15.82;11.32;;;;;;;15.21;66.95;100588.66;4360069;32;34091;-85
2021/10/07 01:01:52;;;;;;;15.88;10.50;;;;;;;14.97;67.09;100588.63;4358783;32;34484;-85
2021/10/07 01:04:20;;;;;;;15.65;11.90;;;;;;;15.20;66.43;100589.56;4359075;32;33009;-85
2021/10/07 01:06:48;;;;;;;14.30;10.88;;;;;;;15.08;67.13;100588.25;4347322;32;33083;-86
2021/10/07 01:09:17;;;;;;;16.17;10.57;;;;;;;15.26;66.68;100594.56;4359792;32;33574;-85
2021/10/07 01:11:46;;;;;;;14.43;10.95;;;;;;;15.28;66.10;100592.78;4359946;32;33598;-85
2021/10/07 01:14:31;;;;;;;16.05;11.40;;;;;;;15.34;66.61;100602.19;4359587;32;34355;-85
2021/10/07 01:17:01;;;;;;;15.68;11.38;;;;;;;15.26;66.69;100599.84;4335409;32;33326;-86
2021/10/07 01:19:29;;;;;;;14.63;11.05;;;;;;;15.00;67.83;100606.03;4347197;32;33216;-85
2021/10/07 01:21:59;;;;;;;18.15;11.32;;;;;;;15.09;67.73;100599.59;4346838;32;34164;-86
2021/10/07 01:24:27;;;;;;;17.08;11.60;;;;;;;14.97;68.18;100599.13;4335547;32;34260;-85
2021/10/07 01:26:55;;;;;;;15.18;11.82;;;;;;;15.06;67.71;100610.22;4347168;32;34546;-84
2021/10/07 01:29:23;;;;;;;16.40;10.75;;;;;;;15.08;67.49;100609.25;4346842;32;33966;-86
2021/10/07 01:31:51;;;;;;;15.43;11.20;;;;;;;15.06;68.07;100610.22;4334248;32;32925;-85
2021/10/07 01:34:28;;;;;;;17.00;12.48;;;;;;;14.85;68.58;100608.28;4346926;32;34075;-85
2021/10/07 01:36:57;;;;;;;16.20;11.30;;;;;;;15.05;67.82;100617.25;4346989;32;33574;-85
2021/10/07 01:39:25;;;;;;;19.15;11.60;;;;;;;14.76;68.61;100613.84;4346177;32;33683;-85
2021/10/07 01:41:53;;;;;;;16.75;11.95;;;;;;;14.77;69.07;100612.97;4347037;32;34047;-85
2021/10/07 01:44:23;;;;;;;16.75;12.02;;;;;;;14.97;68.64;100619.25;4360768;32;34961;-85
2021/10/07 01:46:51;;;;;;;17.27;12.13;;;;;;;14.78;69.58;100619.03;4348408;32;33171;-86
2021/10/07 01:49:20;;;;;;;18.42;12.65;;;;;;;14.89;68.94;100616.94;4336845;32;33990;-86
2021/10/07 01:51:49;;;;;;;17.10;12.13;;;;;;;15.07;68.46;100610.16;4348296;32;34455;-85
2021/10/07 01:54:17;;;;;;;17.83;12.10;;;;;;;15.06;68.16;100610.22;4336657;32;33666;-85
2021/10/07 01:56:45;;;;;;;19.50;11.98;;;;;;;14.99;68.40;100612.19;4348917;32;33479;-85
2021/10/07 01:59:15;;;;;;;17.17;11.35;;;;;;;14.97;68.75;100611.38;4348664;32;32738;-85
2021/10/07 02:01:44;;;;;;;14.82;11.38;;;;;;;15.06;68.35;100607.59;4348686;32;34532;-85
2021/10/07 02:04:12;;;;;;;14.98;11.02;;;;;;;15.01;68.38;100611.22;4361364;32;34403;-84
2021/10/07 02:06:40;;;;;;;15.10;10.85;;;;;;;15.05;68.24;100611.13;4348593;32;33102;-85
2021/10/07 02:09:07;;;;;;;16.10;11.63;;;;;;;14.95;68.49;100619.31;4361287;32;34600;-85
2021/10/07 02:11:35;;;;;;;15.23;11.27;;;;;;;14.94;68.65;100612.34;4348886;32;33557;-85
2021/10/07 02:14:04;;;;;;;16.65;11.50;;;;;;;14.76;69.74;100605.12;4336504;32;34548;-84
2021/10/07 02:16:32;;;;;;;15.82;11.77;;;;;;;14.80;69.87;100614.62;4337066;32;33183;-85
2021/10/07 02:19:01;;;;;;;17.70;11.68;;;;;;;14.87;69.48;100605.63;4337033;32;34017;-85
2021/10/07 02:21:29;;;;;;;14.63;11.15;;;;;;;15.06;68.54;100612.84;4349114;32;33110;-85
2021/10/07 02:23:56;;;;;;;19.45;12.18;;;;;;;15.04;68.29;100607.66;4348756;32;33322;-84
2021/10/07 02:26:25;;;;;;;17.73;12.52;;;;;;;14.84;69.51;100614.44;4360353;32;33600;-84
2021/10/07 02:28:52;;;;;;;19.17;12.63;;;;;;;14.73;69.87;100619.22;4361184;32;33090;-85
2021/10/07 02:31:21;;;;;;;17.73;12.07;;;;;;;14.74;70.08;100620.91;4348362;32;33202;-85
2021/10/07 02:33:50;;;;;;;15.10;11.80;;;;;;;14.76;69.84;100624.34;4361099;32;34507;-85
2021/10/07 02:36:17;;;;;;;17.10;12.52;;;;;;;14.89;69.17;100627.41;4361041;32;33593;-85
2021/10/07 02:38:45;;;;;;;18.58;12.37;;;;;;;15.07;68.60;100627.69;4348271;32;34174;-86
2021/10/07 02:41:13;;;;;;;17.33;12.50;;;;;;;14.88;69.44;100623.06;4336698;32;32658;-85
2021/10/07 02:43:41;;;;;;;15.30;11.52;;;;;;;15.01;68.87;100626.09;4374684;32;34448;-85
2021/10/07 02:46:11;;;;;;;18.48;12.68;;;;;;;15.04;68.77;100626.00;4336757;32;33483;-84
2021/10/07 02:48:41;;;;;;;18.40;13.40;;;;;;;15.09;68.66;100633.72;4348506;32;32594;-86
2021/10/07 02:51:09;;;;;;;19.12;12.88;;;;;;;15.15;68.33;100630.88;4360878;32;33613;-85
2021/10/07 02:53:38;;;;;;;17.90;11.68;;;;;;;14.89;69.56;100629.16;4360373;32;34132;-84
2021/10/07 02:56:06;;;;;;;15.98;11.32;;;;;;;14.52;70.77;100632.09;4349052;32;33693;-85
2021/10/07 02:58:34;;;;;;;14.87;11.60;;;;;;;14.94;69.17;100622.00;4348695;32;32674;-84
2021/10/07 03:01:03;;;;;;;14.48;11.52;;;;;;;14.99;68.67;100626.16;4336805;32;33653;-85
2021/10/07 03:03:32;;;;;;;19.90;12.65;;;;;;;14.82;68.98;100632.03;4336576;32;33691;-84
2021/10/07 03:05:59;;;;;;;18.67;13.05;;;;;;;15.07;68.44;100622.44;4349114;32;33747;-85
2021/10/07 03:08:27;;;;;;;16.05;11.35;;;;;;;15.16;68.14;100624.72;4360301;32;33108;-84
2021/10/07 03:10:56;;;;;;;13.32;10.07;;;;;;;14.63;69.72;100629.16;4336186;32;34697;-86
2021/10/07 03:13:28;;;;;;;15.00;10.25;;;;;;;14.96;67.92;100631.53;4336693;32;34197;-85
2021/10/07 03:15:57;;;;;;;60.47;13.18;;;;;;;15.24;67.16;100625.31;4360678;32;34731;-84
2021/10/07 03:18:25;;;;;;;16.45;10.07;;;;;;;15.24;66.52;100633.19;4360204;32;34586;-84
2021/10/07 03:20:52;;;;;;;15.00;11.57;;;;;;;15.17;68.16;100626.41;4360698;32;34083;-84
2021/10/07 03:23:21;;;;;;;20.05;11.02;;;;;;;14.91;69.28;100630.81;4360314;32;33346;-85
2021/10/07 03:25:49;;;;;;;17.37;11.70;;;;;;;15.31;67.24;100621.53;4348323;32;33554;-85
2021/10/07 03:28:16;;;;;;;16.95;9.80;;;;;;;14.93;68.35;100622.91;4348970;32;32753;-86
2021/10/07 03:30:45;;;;;;;13.18;9.27;;;;;;;14.75;68.08;100622.63;4360244;32;33528;-84
2021/10/07 03:33:16;;;;;;;15.50;9.65;;;;;;;14.94;67.97;100632.50;4348163;32;34615;-85
2021/10/07 03:35:46;;;;;;;16.30;10.27;;;;;;;14.91;68.29;100625.59;4336142;32;33137;-84
2021/10/07 03:38:15;;;;;;;15.65;10.60;;;;;;;15.06;67.70;100623.34;4360657;32;32930;-84
2021/10/07 03:40:43;;;;;;;14.38;10.05;;;;;;;14.98;67.98;100624.47;4348283;32;34266;-84
2021/10/07 03:43:13;;;;;;;18.75;10.50;;;;;;;14.79;68.88;100621.62;4348505;32;34101;-84
2021/10/07 03:45:41;;;;;;;18.73;11.77;;;;;;;15.13;67.57;100620.44;4348367;32;33500;-84
2021/10/07 03:48:09;;;;;;;16.12;10.90;;;;;;;15.13;67.28;100616.94;4360115;32;33114;-83
2021/10/07 03:50:37;;;;;;;14.07;9.77;;;;;;;14.78;68.23;100614.66;4359892;32;32934;-84
2021/10/07 03:53:04;;;;;;;18.67;10.05;;;;;;;14.83;68.45;100619.75;4360491;32;35137;-83
2021/10/07 03:55:32;;;;;;;14.57;8.80;;;;;;;15.05;66.91;100611.13;4348629;32;34387;-85
2021/10/07 03:58:00;;;;;;;14.70;9.52;;;;;;;15.07;66.53;100615.41;4348253;32;33303;-84
2021/10/07 04:00:28;;;;;;;13.38;9.60;;;;;;;15.07;66.24;100617.19;4360046;32;34496;-85
2021/10/07 04:03:02;;;;;;;13.62;9.68;;;;;;;15.11;66.40;100611.75;4335956;32;34696;-85
2021/10/07 04:05:29;;;;;;;15.25;9.02;;;;;;;15.18;66.12;100621.13;4345905;32;33168;-85
2021/10/07 04:07:58;;;;;;;14.27;9.75;;;;;;;15.38;65.26;100618.69;4360404;32;33474;-85
2021/10/07 04:10:26;;;;;;;14.13;9.50;;;;;;;15.12;66.26;100617.88;4360722;32;32841;-86
2021/10/07 04:12:54;;;;;;;17.00;9.20;;;;;;;14.97;66.75;100616.63;4360096;32;34773;-85
2021/10/07 04:15:22;;;;;;;14.20;9.68;;;;;;;15.08;66.86;100618.91;4348015;32;33554;-85
2021/10/07 04:17:51;;;;;;;14.38;10.32;;;;;;;14.82;67.79;100624.16;4361444;32;33272;-84
2021/10/07 04:20:18;;;;;;;15.13;10.93;;;;;;;14.68;68.96;100624.59;4348458;32;33261;-84
2021/10/07 04:22:47;;;;;;;16.35;10.48;;;;;;;15.02;67.70;100625.19;4361191;32;33831;-85
2021/10/07 04:25:15;;;;;;;19.27;10.82;;;;;;;15.00;67.64;100625.25;4360343;32;33399;-85
2021/10/07 04:27:42;;;;;;;18.60;11.43;;;;;;;14.89;67.42;100630.03;4360562;32;32663;-84
2021/10/07 04:30:12;;;;;;;16.27;11.15;;;;;;;14.96;68.12;100628.06;4361030;32;33955;-84
2021/10/07 04:32:44;;;;;;;17.55;10.77;;;;;;;14.78;68.43;100627.75;4349163;32;34332;-85
2021/10/07 04:35:12;;;;;;;15.38;10.90;;;;;;;15.02;68.10;100633.94;4336242;32;32604;-84
2021/10/07 04:37:40;;;;;;;17.90;11.20;;;;;;;14.92;68.37;100635.16;4360597;32;33901;-84
2021/10/07 04:40:09;;;;;;;21.27;12.90;;;;;;;14.96;68.04;100642.03;4348926;32;33303;-84
2021/10/07 04:42:37;;;;;;;17.00;10.55;;;;;;;14.77;69.52;100647.06;4348910;32;34325;-84
2021/10/07 04:45:05;;;;;;;16.50;10.93;;;;;;;14.86;68.73;100648.50;4361354;32;34193;-83
2021/10/07 04:47:34;;;;;;;16.25;10.80;;;;;;;14.84;68.95;100637.22;4348566;32;32790;-83
2021/10/07 04:50:04;;;;;;;15.38;11.23;;;;;;;14.73;69.14;100644.56;4349203;32;34066;-84
2021/10/07 04:52:31;;;;;;;14.45;11.10;;;;;;;14.89;68.55;100652.78;4348801;32;33640;-83
2021/10/07 04:54:59;;;;;;;17.55;10.93;;;;;;;14.67;69.33;100645.66;4361197;32;33975;-84
2021/10/07 04:57:26;;;;;;;19.67;11.68;;;;;;;14.78;68.28;100647.91;4360838;32;33977;-83
2021/10/07 04:59:54;;;;;;;17.20;10.57;;;;;;;14.83;68.13;100648.59;4360852;32;33607;-84
2021/10/07 05:02:22;;;;;;;18.08;10.98;;;;;;;14.76;68.51;100645.34;4348640;32;33634;-83
2021/10/07 05:04:51;;;;;;;17.00;11.10;;;;;;;15.00;67.82;100651.50;4348032;32;32841;-83
2021/10/07 05:07:18;;;;;;;15.05;10.98;;;;;;;14.79;68.38;100650.47;4348450;32;33262;-83
2021/10/07 05:09:46;;;;;;;13.55;9.93;;;;;;;14.94;68.32;100661.34;4360719;32;33890;-83
2021/10/07 05:12:14;;;;;;;18.05;10.13;;;;;;;14.94;67.79;100658.72;4348202;32;32903;-82
2021/10/07 05:14:42;;;;;;;14.35;9.63;;;;;;;14.61;69.61;100659.78;4348073;32;32925;-82
2021/10/07 05:17:10;;;;;;;16.87;9.98;;;;;;;15.00;67.81;100659.38;4361345;32;34259;-82
2021/10/07 05:19:38;;;;;;;15.45;10.70;;;;;;;15.01;67.29;100655.84;4362641;32;34313;-83
2021/10/07 05:22:06;;;;;;;15.30;10.63;;;;;;;14.81;68.10;100663.53;4350603;32;34320;-82
2021/10/07 05:24:33;;;;;;;15.95;10.93;;;;;;;14.53;69.51;100669.66;4350322;32;32737;-84
2021/10/07 05:27:03;;;;;;;16.50;9.68;;;;;;;14.52;69.55;100670.59;4351092;32;32762;-82
2021/10/07 05:29:32;;;;;;;14.55;9.65;;;;;;;14.75;67.81;100672.47;4350516;32;32775;-83
2021/10/07 05:31:59;;;;;;;16.70;10.80;;;;;;;14.83;68.41;100669.59;4350016;32;34525;-83
2021/10/07 05:34:28;;;;;;;14.80;10.27;;;;;;;14.93;68.40;100664.88;4349777;32;34009;-83
2021/10/07 05:36:55;;;;;;;17.90;10.88;;;;;;;15.10;67.45;100673.03;4362899;32;33750;-83
2021/10/07 05:39:23;;;;;;;17.40;10.80;;;;;;;15.15;67.63;100667.63;4363814;32;34039;-83
2021/10/07 05:41:51;;;;;;;15.35;10.77;;;;;;;15.14;67.60;100669.41;4339340;32;33450;-84
2021/10/07 05:44:19;;;;;;;15.90;11.43;;;;;;;15.17;67.47;100671.03;4352865;32;33551;-83
2021/10/07 05:46:47;;;;;;;44.67;34.33;;;;;;;15.07;66.36;100667.03;4364770;32;32564;-83
2021/10/07 05:49:19;;;;;;;13.05;10.27;;;;;;;15.12;65.91;100665.97;4352770;32;33032;-84
2021/10/07 05:51:47;;;;;;;16.00;9.02;;;;;;;15.41;65.17;100671.06;4340385;32;33390;-86
2021/10/07 05:54:17;;;;;;;14.65;10.57;;;;;;;15.45;65.36;100670.06;4366202;32;34025;-85
2021/10/07 05:56:45;;;;;;;15.80;9.32;;;;;;;15.31;66.62;100670.56;4365615;32;33134;-85
2021/10/07 05:59:12;;;;;;;15.00;10.15;;;;;;;15.10;66.68;100678.28;4364914;32;32921;-84
2021/10/07 06:01:41;;;;;;;21.37;14.95;;;;;;;15.40;66.06;100685.16;4365256;32;33926;-85
2021/10/07 06:04:10;;;;;;;16.42;9.73;;;;;;;15.38;66.52;100677.28;4348126;32;32830;-86
2021/10/07 06:06:38;;;;;;;16.23;10.55;;;;;;;15.44;65.13;100682.34;4363039;32;33346;-87
2021/10/07 06:09:07;;;;;;;13.90;10.02;;;;;;;15.48;65.09;100678.69;4363593;32;33870;-86
2021/10/07 06:11:36;;;;;;;13.20;9.73;;;;;;;15.38;66.34;100686.94;4363217;32;33140;-85
2021/10/07 06:14:04;;;;;;;19.30;11.12;;;;;;;15.42;65.85;100689.41;4363044;32;34317;-85
2021/10/07 06:16:33;;;;;;;13.95;10.23;;;;;;;15.48;65.87;100693.59;4364159;32;32299;-84
2021/10/07 06:19:04;;;;;;;14.80;10.38;;;;;;;15.66;65.45;100698.19;4363704;32;34568;-84
2021/10/07 06:21:32;;;;;;;15.82;10.27;;;;;;;15.53;66.75;100702.16;4364140;32;33819;-84
2021/10/07 06:24:00;;;;;;;16.65;11.38;;;;;;;15.42;66.83;100699.91;4352169;32;33802;-85
2021/10/07 06:26:43;;;;;;;14.63;10.10;;;;;;;15.68;65.80;100701.59;4366073;32;32475;-85
2021/10/07 06:29:12;;;;;;;16.50;9.85;;;;;;;15.73;64.89;100700.56;4362396;32;33582;-85
2021/10/07 06:31:40;;;;;;;15.43;9.55;;;;;;;15.69;64.44;100707.72;4350234;32;34470;-85
2021/10/07 06:34:08;;;;;;;32.33;22.45;;;;;;;15.78;63.81;100707.38;4363548;32;33114;-85
2021/10/07 06:36:36;;;;;;;15.73;11.70;;;;;;;15.96;63.29;100712.88;4362468;32;33360;-86
2021/10/07 06:39:05;;;;;;;15.20;10.88;;;;;;;15.53;64.57;100715.31;4362814;32;33283;-86
2021/10/07 06:41:34;;;;;;;14.70;10.40;;;;;;;15.77;64.12;100710.91;4350601;32;34168;-86
2021/10/07 06:44:03;;;;;;;14.45;10.25;;;;;;;15.65;64.24;100721.87;4350353;32;33096;-85
2021/10/07 06:46:31;;;;;;;17.52;13.10;;;;;;;15.83;63.80;100723.00;4350230;32;32813;-85
2021/10/07 06:48:59;;;;;;;15.73;9.23;;;;;;;15.80;64.82;100729.22;4362603;32;34342;-85
2021/10/07 06:51:28;;;;;;;28.92;20.00;;;;;;;15.80;65.08;100728.34;4350215;32;33000;-86
2021/10/07 06:54:00;;;;;;;17.15;11.10;;;;;;;15.58;66.34;100733.50;4362409;32;32473;-86
2021/10/07 06:56:30;;;;;;;18.75;10.45;;;;;;;15.81;65.11;100732.72;4364571;32;32403;-86
2021/10/07 06:58:57;;;;;;;12.88;9.57;;;;;;;15.61;66.29;100734.25;4364685;32;33628;-84
2021/10/07 07:01:27;;;;;;;14.63;10.10;;;;;;;15.48;66.10;100738.25;4370592;32;34157;-84
2021/10/07 07:03:57;;;;;;;17.52;10.38;;;;;;;15.63;65.81;100735.03;4353414;32;33993;-86
2021/10/07 07:06:25;;;;;;;14.60;10.05;;;;;;;15.90;65.00;100736.75;4350926;32;34379;-85
2021/10/07 07:08:53;;;;;;;15.30;9.82;;;;;;;15.92;64.96;100729.69;4351019;32;32809;-86
2021/10/07 07:11:28;;;;;;;17.58;10.98;;;;;;;15.92;65.17;100740.19;4350448;32;34110;-85
2021/10/07 07:13:56;;;;;;;21.10;12.82;;;;;;;15.83;66.31;100739.63;4364016;32;33497;-85
2021/10/07 07:16:24;;;;;;;15.80;10.65;;;;;;;15.76;65.81;100745.13;4350373;32;32422;-85
2021/10/07 07:18:52;;;;;;;17.67;10.73;;;;;;;15.67;65.81;100747.16;4362740;32;34992;-86
2021/10/07 07:21:20;;;;;;;16.37;10.50;;;;;;;15.77;65.88;100750.31;4362922;32;33582;-86
2021/10/07 07:23:50;;;;;;;17.95;10.07;;;;;;;15.78;66.46;100754.66;4350729;32;34270;-84
2021/10/07 07:26:18;;;;;;;14.52;9.93;;;;;;;16.05;65.27;100756.34;4363682;32;32401;-86
2021/10/07 07:28:45;;;;;;;14.15;10.55;;;;;;;15.73;64.64;100755.72;4362829;32;34297;-85
2021/10/07 07:31:13;;;;;;;13.93;9.00;;;;;;;15.76;65.02;100761.75;4375148;32;33922;-86
2021/10/07 07:33:41;;;;;;;28.73;21.52;;;;;;;15.65;65.02;100767.38;4350148;32;34147;-86
2021/10/07 07:36:10;;;;;;;17.25;10.10;;;;;;;15.88;65.01;100765.72;4362908;32;32623;-85
2021/10/07 07:38:38;;;;;;;15.85;10.75;;;;;;;16.03;64.34;100770.44;4350429;32;32758;-86
2021/10/07 07:41:06;;;;;;;15.90;9.38;;;;;;;16.16;64.07;100770.81;4362843;32;33889;-85
2021/10/07 07:43:34;;;;;;;18.17;10.85;;;;;;;15.92;64.42;100767.31;4362999;32;34641;-85
2021/10/07 07:46:01;;;;;;;17.33;12.10;;;;;;;16.10;63.49;100776.31;4362838;32;33420;-85
2021/10/07 07:48:29;;;;;;;16.55;9.68;;;;;;;16.28;nan;100779.16;4362452;32;33625;-85
2021/10/07 07:50:57;;;;;;;16.05;9.25;;;;;;;16.19;63.20;100775.97;4362683;32;33753;-84
2021/10/07 07:53:26;;;;;;;14.55;9.25;;;;;;;16.02;63.58;100775.72;4351095;32;34103;-85
2021/10/07 07:55:54;;;;;;;14.23;9.02;;;;;;;16.21;63.59;100778.53;4362991;32;32472;-85
2021/10/07 07:58:23;;;;;;;15.10;9.13;;;;;;;16.14;64.00;100775.28;4362573;32;33064;-85
2021/10/07 08:00:50;;;;;;;15.95;10.73;;;;;;;16.02;63.62;100768.72;4362530;32;33470;-86
2021/10/07 08:03:19;;;;;;;15.38;9.77;;;;;;;16.07;63.94;100778.19;4350295;32;33101;-85
2021/10/07 08:05:47;;;;;;;13.60;9.23;;;;;;;16.05;64.67;100766.84;4350271;32;32780;-85
2021/10/07 08:08:14;;;;;;;14.80;10.18;;;;;;;16.33;63.27;100777.22;4364212;32;33447;-86
2021/10/07 08:10:42;;;;;;;64.95;42.90;;;;;;;16.34;63.09;100779.78;4352328;32;34275;-86
2021/10/07 08:13:10;;;;;;;16.25;10.43;;;;;;;16.41;63.42;100776.91;4362665;32;34802;-86
2021/10/07 08:15:37;;;;;;;13.62;9.05;;;;;;;16.19;63.53;100775.97;4350098;32;32834;-86
2021/10/07 08:18:06;;;;;;;13.07;8.52;;;;;;;16.39;62.44;100774.31;4362426;32;33414;-85
2021/10/07 08:20:36;;;;;;;13.55;8.52;;;;;;;16.29;62.53;100784.34;4350453;32;33977;-85
2021/10/07 08:23:04;;;;;;;14.25;9.43;;;;;;;16.37;62.43;100779.66;4350056;32;33122;-86
2021/10/07 08:25:32;;;;;;;14.40;9.25;;;;;;;16.54;61.89;100780.78;4362735;32;33311;-86
2021/10/07 08:28:00;;;;;;;13.95;9.07;;;;;;;16.62;61.59;100778.69;4350824;32;33529;-86
2021/10/07 08:30:29;;;;;;;14.00;8.75;;;;;;;16.63;61.72;100779.53;4362220;32;34863;-85
2021/10/07 08:32:56;;;;;;;14.75;8.57;;;;;;;16.59;61.78;100778.81;4350119;32;33264;-85
2021/10/07 08:35:27;;;;;;;13.95;8.60;;;;;;;16.43;62.18;100783.81;4362269;32;34985;-86
2021/10/07 08:37:55;;;;;;;15.00;8.35;;;;;;;16.59;61.47;100785.84;4350004;32;33526;-86
2021/10/07 08:40:23;;;;;;;13.65;8.55;;;;;;;16.69;61.14;100788.03;4361897;32;33311;-86
2021/10/07 08:42:50;;;;;;;13.75;8.65;;;;;;;16.59;61.17;100781.44;4349821;32;33278;-86
2021/10/07 08:45:18;;;;;;;12.68;8.75;;;;;;;16.80;60.57;100789.41;4349768;32;32909;-86
2021/10/07 08:47:47;;;;;;;14.07;9.55;;;;;;;16.94;60.13;100791.50;4340964;32;268968;-86
2021/10/07 08:50:17;;;;;;;13.30;8.10;;;;;;;16.93;60.80;100795.91;4366124;32;34165;-86
2021/10/07 08:52:46;;;;;;;13.60;8.00;;;;;;;16.96;59.77;100779.13;4350788;32;33007;-86
2021/10/07 08:55:14;;;;;;;12.07;7.72;;;;;;;17.07;59.74;100791.84;4351521;32;33011;-87
2021/10/07 08:57:41;;;;;;;11.20;7.57;;;;;;;16.68;59.86;100796.00;4364291;32;33545;-85
2021/10/07 09:00:12;;;;;;;11.30;8.23;;;;;;;16.95;59.57;100794.09;4339491;32;34839;-85
2021/10/07 09:02:41;;;;;;;13.23;8.48;;;;;;;17.02;59.42;100798.16;4363370;32;34172;-86
2021/10/07 09:05:19;;;;;;;11.65;7.78;;;;;;;16.99;59.11;100786.91;4363637;32;33162;-85
2021/10/07 09:08:09;;;;;;;15.27;8.15;;;;;;;16.84;60.27;100789.19;4363631;32;33732;-86
2021/10/07 09:10:44;;;;;;;13.17;8.07;;;;;;;17.15;59.05;100788.00;4339444;32;33364;-85
2021/10/07 09:13:23;;;;;;;12.65;8.30;;;;;;;17.22;59.43;100783.34;4364331;32;35066;-87
2021/10/07 09:15:57;;;;;;;10.73;7.72;;;;;;;17.01;59.14;100783.28;4352528;32;34374;-86
2021/10/07 09:18:27;;;;;;;11.95;7.62;;;;;;;17.36;58.26;100788.00;4363945;32;34676;-86
2021/10/07 09:20:57;;;;;;;15.00;7.97;;;;;;;17.53;56.98;100779.37;4352291;32;34734;-86
2021/10/07 09:23:30;;;;;;;16.00;8.55;;;;;;;17.43;56.99;100789.47;4338957;32;33798;-86
2021/10/07 09:26:02;;;;;;;13.10;7.75;;;;;;;17.47;56.97;100783.13;4351661;32;33950;-86
2021/10/07 09:28:49;;;;;;;12.48;8.25;;;;;;;17.54;57.26;100783.72;4363044;32;33912;-87
2021/10/07 09:31:27;;;;;;;12.63;7.95;;;;;;;17.54;55.34;100791.62;4351454;32;34528;-87
2021/10/07 09:33:57;;;;;;;21.00;10.23;;;;;;;17.61;56.46;100792.22;4363454;32;33679;-87
2021/10/07 09:36:30;;;;;;;14.93;8.70;;;;;;;17.60;55.77;100787.88;4351428;32;33896;-86
2021/10/07 09:38:59;;;;;;;14.13;8.10;;;;;;;17.64;55.56;100789.44;4351476;32;32825;-85
2021/10/07 09:41:31;;;;;;;13.25;8.15;;;;;;;17.77;55.39;100787.13;4350985;32;34018;-87
2021/10/07 09:44:04;;;;;;;14.87;8.20;;;;;;;17.66;55.23;100780.56;4338831;32;32793;-87
2021/10/07 09:46:47;;;;;;;14.13;8.45;;;;;;;17.69;55.55;100779.56;4362604;32;32687;-87
2021/10/07 09:49:19;;;;;;;13.35;7.55;;;;;;;17.80;55.19;100785.22;4364996;32;33069;-87
2021/10/07 09:51:56;;;;;;;12.32;7.32;;;;;;;17.72;54.59;100775.94;4364930;32;34421;-87
2021/10/07 09:54:27;;;;;;;13.88;7.57;;;;;;;17.83;54.70;100778.97;4352595;32;33163;-87
2021/10/07 09:56:57;;;;;;;13.57;7.72;;;;;;;17.09;55.78;100776.88;4376175;32;33626;-86
2021/10/07 09:59:27;;;;;;;10.93;6.72;;;;;;;17.64;55.01;100773.63;4351137;32;34063;-87
2021/10/07 10:01:56;;;;;;;11.48;6.93;;;;;;;17.81;53.51;100771.09;4340555;32;33722;-85
2021/10/07 10:04:26;;;;;;;12.13;6.90;;;;;;;17.89;52.81;100770.75;4364799;32;33820;-85
2021/10/07 10:06:54;;;;;;;10.70;6.57;;;;;;;17.90;53.28;100766.37;4345396;32;32512;-87
2021/10/07 10:09:24;;;;;;;13.43;7.05;;;;;;;18.10;51.81;100768.13;4364530;32;34631;-86
2021/10/07 10:11:53;;;;;;;11.93;7.07;;;;;;;17.96;52.21;100769.59;4356709;32;35142;-87
2021/10/07 10:14:22;;;;;;;14.13;7.20;;;;;;;17.81;52.64;100764.97;4368444;32;34043;-87
2021/10/07 10:16:55;;;;;;;15.23;6.87;;;;;;;17.80;52.60;100765.91;4355099;32;34124;-87
2021/10/07 10:19:23;;;;;;;15.18;6.62;;;;;;;17.93;52.27;100767.09;4366818;32;33651;-87
2021/10/07 10:21:54;;;;;;;12.18;6.70;;;;;;;17.76;52.31;100764.34;4366103;32;33191;-87
2021/10/07 10:24:23;;;;;;;12.15;6.93;;;;;;;17.89;52.10;100772.56;4367997;32;32713;-87
2021/10/07 10:27:04;;;;;;;12.50;6.85;;;;;;;17.66;52.86;100770.00;4341519;32;34228;-85
2021/10/07 10:29:34;;;;;;;14.35;7.40;;;;;;;17.76;52.28;100772.25;4351161;32;32647;-86
2021/10/07 10:32:03;;;;;;;12.07;7.65;;;;;;;17.56;53.19;100770.47;4363551;32;33973;-87
2021/10/07 10:34:44;;;;;;;14.87;7.40;;;;;;;17.79;52.42;100761.53;4364397;32;33743;-86
2021/10/07 10:37:14;;;;;;;13.82;7.15;;;;;;;17.54;51.52;100757.38;4364945;32;32951;-85
2021/10/07 10:39:47;;;;;;;12.85;7.90;;;;;;;17.96;51.08;100759.06;4354071;32;33462;-88
2021/10/07 10:42:24;;;;;;;38.75;23.77;;;;;;;17.87;51.98;100752.37;4353506;32;33091;-86
2021/10/07 10:44:58;;;;;;;11.73;6.70;;;;;;;17.91;50.38;100760.13;4378214;32;33975;-86
2021/10/07 10:47:31;;;;;;;12.45;6.95;;;;;;;17.87;51.18;100759.44;4353069;32;32542;-86
2021/10/07 10:50:13;;;;;;;15.05;6.80;;;;;;;18.13;50.56;100767.97;4365343;32;32679;-86
2021/10/07 10:52:50;;;;;;;11.10;6.53;;;;;;;18.15;50.08;100764.34;4352941;32;33592;-85
2021/10/07 10:55:23;;;;;;;11.48;6.37;;;;;;;18.36;49.17;100759.84;4353044;32;34129;-86
2021/10/07 10:58:01;;;;;;;10.77;6.62;;;;;;;18.40;49.45;100764.97;4364514;32;33805;-86
2021/10/07 11:00:45;;;;;;;13.15;6.85;;;;;;;18.13;50.00;100762.69;4341121;32;33697;-85
2021/10/07 11:03:17;;;;;;;11.07;6.68;;;;;;;17.90;50.65;100763.72;4352613;32;33271;-85
2021/10/07 11:05:56;;;;;;;10.50;7.32;;;;;;;18.39;49.19;100760.59;4377825;32;33958;-85
2021/10/07 11:08:25;;;;;;;13.95;7.15;;;;;;;18.30;49.79;100762.75;4348536;32;32560;-84
2021/10/07 11:11:29;;;;;;;12.98;7.53;;;;;;;18.49;49.59;100753.97;4358023;32;33405;-87
2021/10/07 11:13:57;;;;;;;25.33;18.05;;;;;;;18.66;49.40;100759.28;4350647;32;33217;-87
2021/10/07 11:16:29;;;;;;;25.77;19.02;;;;;;;18.59;50.15;100760.53;4363564;32;34137;-86
2021/10/07 11:18:59;;;;;;;11.93;7.45;;;;;;;18.73;49.53;100754.56;4352875;32;33224;-87
2021/10/07 11:21:28;;;;;;;11.95;7.45;;;;;;;18.34;50.80;100759.03;4366128;32;33489;-86
2021/10/07 11:23:56;;;;;;;12.37;6.78;;;;;;;18.65;50.12;100746.16;4339472;32;32753;-89
2021/10/07 11:26:33;;;;;;;13.80;6.80;;;;;;;18.93;49.50;100740.44;4352427;32;33794;-86
2021/10/07 11:29:02;;;;;;;12.55;7.35;;;;;;;18.99;49.69;100733.97;4363767;32;32917;-87